createdAt,value
2019-05-16T00:01:24.826Z,4.90
2019-05-16T00:03:53.311Z,5.15
2019-05-16T00:06:25.059Z,4.47
2019-05-16T00:08:53.747Z,4.30
2019-05-16T00:11:23.321Z,4.80
2019-05-16T00:13:52.772Z,4.70
2019-05-16T00:16:21.269Z,5.03
2019-05-16T00:18:49.803Z,4.50
2019-05-16T00:21:19.906Z,4.05
2019-05-16T00:23:48.756Z,4.60
2019-05-16T00:26:19.494Z,4.55
2019-05-16T00:28:48.439Z,4.17
2019-05-16T00:31:15.219Z,4.42
2019-05-16T00:33:53.923Z,4.28
2019-05-16T00:36:23.373Z,4.78
2019-05-16T00:38:52.934Z,4.45
2019-05-16T00:41:23.661Z,4.40
2019-05-16T00:43:53.106Z,4.40
2019-05-16T00:46:21.551Z,4.55
2019-05-16T00:48:52.197Z,4.75
2019-05-16T00:51:20.866Z,4.40
2019-05-16T00:53:51.546Z,4.62
2019-05-16T00:56:20.300Z,4.07
2019-05-16T00:58:48.861Z,5.25
2019-05-16T01:01:19.039Z,5.00
2019-05-16T01:03:48.175Z,4.87
2019-05-16T01:06:19.163Z,4.40
2019-05-16T01:08:42.994Z,4.87
2019-05-16T01:11:13.514Z,4.67
2019-05-16T01:13:48.495Z,4.87
2019-05-16T01:16:14.756Z,5.12
2019-05-16T01:18:43.159Z,4.80
2019-05-16T01:21:11.630Z,4.42
2019-05-16T01:23:40.134Z,4.78
2019-05-16T01:26:08.602Z,4.90
2019-05-16T01:28:37.738Z,4.90
2019-05-16T01:31:05.640Z,4.62
2019-05-16T01:33:34.064Z,4.42
2019-05-16T01:36:02.574Z,4.33
2019-05-16T01:38:31.028Z,4.40
2019-05-16T01:40:59.750Z,4.62
2019-05-16T01:43:28.532Z,4.12
2019-05-16T01:46:00.877Z,4.30
2019-05-16T01:48:30.364Z,4.08
2019-05-16T01:50:58.843Z,4.62
2019-05-16T01:53:27.867Z,4.03
2019-05-16T01:55:57.871Z,4.47
2019-05-16T01:58:25.625Z,4.50
2019-05-16T02:01:05.516Z,4.30
2019-05-16T02:03:23.192Z,4.22
2019-05-16T02:05:52.617Z,4.55
2019-05-16T02:08:23.152Z,4.45
2019-05-16T02:11:18.128Z,4.35
2019-05-16T02:13:48.786Z,4.00
2019-05-16T02:16:19.391Z,4.60
2019-05-16T02:18:49.015Z,3.90
2019-05-16T02:21:18.240Z,3.70
2019-05-16T02:23:45.780Z,3.95
2019-05-16T02:26:14.249Z,3.70
2019-05-16T02:28:43.760Z,4.40
2019-05-16T02:31:11.935Z,3.90
2019-05-16T02:33:40.613Z,3.80
2019-05-16T02:36:10.961Z,3.58
2019-05-16T02:38:42.033Z,3.58
2019-05-16T02:41:10.522Z,3.50
2019-05-16T02:43:36.007Z,4.28
2019-05-16T02:46:04.506Z,3.98
2019-05-16T02:48:35.353Z,4.00
2019-05-16T02:51:02.028Z,4.60
2019-05-16T02:53:31.352Z,4.15
2019-05-16T02:56:02.182Z,3.87
2019-05-16T02:58:30.974Z,4.05
2019-05-16T03:01:01.786Z,3.80
2019-05-16T03:03:31.330Z,3.65
2019-05-16T03:05:56.533Z,3.40
2019-05-16T03:08:25.371Z,3.15
2019-05-16T03:10:54.520Z,3.10
2019-05-16T03:13:24.048Z,3.50
2019-05-16T03:15:53.612Z,3.47
2019-05-16T03:18:22.513Z,2.92
2019-05-16T03:20:51.182Z,2.90
2019-05-16T03:23:21.826Z,2.80
2019-05-16T03:25:50.531Z,3.27
2019-05-16T03:28:21.846Z,2.90
2019-05-16T03:30:46.978Z,2.93
2019-05-16T03:33:24.175Z,3.27
2019-05-16T03:35:45.171Z,3.52
2019-05-16T03:38:14.014Z,3.65
2019-05-16T03:40:42.523Z,3.58
2019-05-16T03:43:11.675Z,3.27
2019-05-16T03:45:41.649Z,3.55
2019-05-16T03:48:07.917Z,3.85
2019-05-16T03:50:36.721Z,3.15
2019-05-16T03:53:05.181Z,3.42
2019-05-16T03:55:34.739Z,3.65
2019-05-16T03:58:05.537Z,3.52
2019-05-16T04:00:51.271Z,3.15
2019-05-16T04:03:16.541Z,3.02
2019-05-16T04:05:46.050Z,2.77
2019-05-16T04:08:19.496Z,2.98
2019-05-16T04:10:43.063Z,2.25
2019-05-16T04:13:11.704Z,2.62
2019-05-16T04:15:40.792Z,2.87
2019-05-16T04:18:11.129Z,2.42
2019-05-16T04:20:40.424Z,3.12
2019-05-16T04:23:06.325Z,3.00
2019-05-16T04:25:34.903Z,2.40
2019-05-16T04:28:03.678Z,2.85
2019-05-16T04:30:32.181Z,2.60
2019-05-16T04:33:01.941Z,2.90
2019-05-16T04:35:31.652Z,2.55
2019-05-16T04:38:01.907Z,2.90
2019-05-16T04:40:30.964Z,2.42
2019-05-16T04:42:57.072Z,2.65
2019-05-16T04:45:26.876Z,2.58
2019-05-16T04:47:55.407Z,3.02
2019-05-16T04:50:23.946Z,2.70
2019-05-16T04:52:52.346Z,2.52
2019-05-16T04:55:21.231Z,2.72
2019-05-16T04:57:51.086Z,2.85
2019-05-16T05:00:20.891Z,2.52
2019-05-16T05:02:46.281Z,3.00
2019-05-16T05:05:21.587Z,2.90
2019-05-16T05:07:51.095Z,2.47
2019-05-16T05:10:20.619Z,2.50
2019-05-16T05:12:51.251Z,2.60
2019-05-16T05:15:17.201Z,2.70
2019-05-16T05:17:45.680Z,2.30
2019-05-16T05:20:14.155Z,2.40
2019-05-16T05:22:42.624Z,2.75
2019-05-16T05:25:11.151Z,2.45
2019-05-16T05:27:41.300Z,2.55
2019-05-16T05:30:10.292Z,2.55
2019-05-16T05:32:36.890Z,2.95
2019-05-16T05:35:05.452Z,2.75
2019-05-16T05:37:34.265Z,2.45
2019-05-16T05:40:02.805Z,2.65
2019-05-16T05:42:35.474Z,2.15
2019-05-16T05:45:06.047Z,2.02
2019-05-16T05:47:34.449Z,2.65
2019-05-16T05:50:04.453Z,2.25
2019-05-16T05:53:03.957Z,2.65
2019-05-16T05:55:34.401Z,2.30
2019-05-16T05:58:02.956Z,2.43
2019-05-16T06:00:37.299Z,2.12
2019-05-16T06:03:05.802Z,2.87
2019-05-16T06:05:34.283Z,2.47
2019-05-16T06:08:06.481Z,2.08
2019-05-16T06:10:36.008Z,2.10
2019-05-16T06:13:04.429Z,2.40
2019-05-16T06:15:33.939Z,2.50
2019-05-16T06:18:02.693Z,2.00
2019-05-16T06:20:31.208Z,2.20
2019-05-16T06:23:00.043Z,2.00
2019-05-16T06:25:31.469Z,2.30
2019-05-16T06:28:00.210Z,2.37
2019-05-16T06:30:30.208Z,2.58
2019-05-16T06:32:55.901Z,2.20
2019-05-16T06:35:24.390Z,2.27
2019-05-16T06:37:52.852Z,2.40
2019-05-16T06:40:21.741Z,2.05
2019-05-16T06:42:50.949Z,2.37
2019-05-16T06:45:20.530Z,2.10
2019-05-16T06:47:50.222Z,2.52
2019-05-16T06:50:16.782Z,2.40
2019-05-16T06:52:45.907Z,2.00
2019-05-16T06:55:17.307Z,2.85
2019-05-16T06:57:50.099Z,2.00
2019-05-16T07:00:16.241Z,2.47
2019-05-16T07:02:44.940Z,2.65
2019-05-16T07:05:13.434Z,2.10
2019-05-16T07:07:41.925Z,2.12
2019-05-16T07:10:10.479Z,2.20
2019-05-16T07:12:41.332Z,2.10
2019-05-16T07:15:11.900Z,2.17
2019-05-16T07:17:36.118Z,2.02
2019-05-16T07:20:04.623Z,2.92
2019-05-16T07:22:33.188Z,4.30
2019-05-16T07:25:01.688Z,2.77
2019-05-16T07:27:30.840Z,2.22
2019-05-16T07:30:01.089Z,2.42
2019-05-16T07:32:29.996Z,2.27
2019-05-16T07:34:55.693Z,1.75
2019-05-16T07:37:26.198Z,1.77
2019-05-16T07:39:54.657Z,1.77
2019-05-16T07:42:23.145Z,1.95
2019-05-16T07:44:52.650Z,2.30
2019-05-16T07:47:23.190Z,2.25
2019-05-16T07:49:51.643Z,1.83
2019-05-16T07:52:20.948Z,1.70
2019-05-16T07:54:52.812Z,2.17
2019-05-16T07:57:23.056Z,2.10
2019-05-16T07:59:50.679Z,3.00
2019-05-16T08:02:20.625Z,2.17
2019-05-16T08:04:46.644Z,2.60
2019-05-16T08:07:15.211Z,2.02
2019-05-16T08:09:43.746Z,2.10
2019-05-16T08:12:12.325Z,2.27
2019-05-16T08:14:41.052Z,2.15
2019-05-16T08:17:10.411Z,2.02
2019-05-16T08:19:40.069Z,1.80
2019-05-16T08:22:10.936Z,2.40
2019-05-16T08:24:36.750Z,2.42
2019-05-16T08:27:05.258Z,2.47
2019-05-16T08:29:34.729Z,2.42
2019-05-16T08:32:03.243Z,2.60
2019-05-16T08:34:51.233Z,2.65
2019-05-16T08:37:36.320Z,2.00
2019-05-16T08:39:47.012Z,2.50
2019-05-16T08:42:15.511Z,2.52
2019-05-16T08:44:45.077Z,2.45
2019-05-16T08:47:13.498Z,2.50
2019-05-16T08:49:42.426Z,2.60
2019-05-16T08:52:13.924Z,2.52
2019-05-16T08:54:44.039Z,2.35
2019-05-16T08:57:26.119Z,2.27
2019-05-16T08:59:41.073Z,2.42
2019-05-16T09:04:46.787Z,2.37
2019-05-16T09:07:15.179Z,2.17
2019-05-16T09:09:51.132Z,2.52
2019-05-16T09:12:13.175Z,2.08
2019-05-16T09:14:41.623Z,2.33
2019-05-16T09:17:10.123Z,2.50
2019-05-16T09:19:38.590Z,2.40
2019-05-16T09:22:07.429Z,2.25
2019-05-16T09:24:37.719Z,2.42
2019-05-16T09:27:10.739Z,2.30
2019-05-16T09:29:36.627Z,2.22
2019-05-16T09:32:12.742Z,2.58
2019-05-16T09:34:31.959Z,2.62
2019-05-16T09:37:01.489Z,2.02
2019-05-16T09:39:37.042Z,2.33
2019-05-16T09:42:03.472Z,2.70
2019-05-16T09:44:33.460Z,2.85
2019-05-16T09:47:01.957Z,2.15
2019-05-16T09:49:30.430Z,2.02
2019-05-16T09:51:59.296Z,2.37
2019-05-16T09:54:27.841Z,2.40
2019-05-16T09:56:57.221Z,2.27
2019-05-16T09:59:26.368Z,2.40
2019-05-16T10:01:59.498Z,2.65
2019-05-16T10:04:28.042Z,2.60
2019-05-16T10:06:57.218Z,2.62
2019-05-16T10:09:40.250Z,3.40
2019-05-16T10:12:07.016Z,2.92
2019-05-16T10:14:21.933Z,3.08
2019-05-16T10:16:50.420Z,3.07
2019-05-16T10:19:20.161Z,3.65
2019-05-16T10:21:49.892Z,3.40
2019-05-16T10:24:18.407Z,3.17
2019-05-16T10:26:53.454Z,3.62
2019-05-16T10:29:18.372Z,3.60
2019-05-16T10:31:49.417Z,3.40
2019-05-16T10:34:12.361Z,3.80
2019-05-16T10:36:42.268Z,3.67
2019-05-16T10:39:12.705Z,4.80
2019-05-16T10:41:41.212Z,4.58
2019-05-16T10:44:17.858Z,4.03
2019-05-16T10:46:48.139Z,4.35
2019-05-16T10:49:16.708Z,4.10
2019-05-16T10:51:47.145Z,4.30
2019-05-16T10:54:19.056Z,3.90
2019-05-16T10:57:01.471Z,4.92
2019-05-16T11:01:59.736Z,4.58
2019-05-16T11:04:37.206Z,5.00
2019-05-16T11:06:57.186Z,5.08
2019-05-16T11:09:24.059Z,5.72
2019-05-16T11:11:52.564Z,4.70
2019-05-16T11:14:21.047Z,4.58
2019-05-16T11:16:49.614Z,5.42
2019-05-16T11:19:23.696Z,4.90
2019-05-16T11:21:46.934Z,5.62
2019-05-16T11:24:15.003Z,5.00
2019-05-16T11:26:44.480Z,5.50
2019-05-16T11:29:12.980Z,5.22
2019-05-16T11:31:41.456Z,4.72
2019-05-16T11:34:09.978Z,4.85
2019-05-16T11:36:39.476Z,5.30
2019-05-16T11:39:08.834Z,5.03
2019-05-16T11:41:36.919Z,4.42
2019-05-16T11:44:06.667Z,4.90
2019-05-16T11:46:33.908Z,4.65
2019-05-16T11:49:02.390Z,5.20
2019-05-16T11:51:30.862Z,5.03
2019-05-16T11:54:00.362Z,4.95
2019-05-16T11:56:28.854Z,5.72
2019-05-16T11:58:57.341Z,4.50
2019-05-16T12:01:27.483Z,4.53
2019-05-16T12:03:57.558Z,4.45
2019-05-16T12:06:26.819Z,4.40
2019-05-16T12:08:53.931Z,4.40
2019-05-16T12:11:22.424Z,4.80
2019-05-16T12:13:52.129Z,4.83
2019-05-16T12:16:20.915Z,4.65
2019-05-16T12:18:57.109Z,5.22
2019-05-16T12:21:27.784Z,5.33
2019-05-16T12:23:57.302Z,5.17
2019-05-16T12:26:28.206Z,6.05
2019-05-16T12:28:57.299Z,5.53
2019-05-16T12:31:37.451Z,5.45
2019-05-16T12:34:04.147Z,6.70
2019-05-16T12:36:32.732Z,7.78
2019-05-16T12:39:01.224Z,6.92
2019-05-16T12:41:29.969Z,7.15
2019-05-16T12:43:58.489Z,6.60
2019-05-16T12:46:27.299Z,6.65
2019-05-16T12:48:57.506Z,7.85
2019-05-16T12:51:26.269Z,7.67
2019-05-16T12:56:19.489Z,7.17
2019-05-16T12:58:50.787Z,6.50
2019-05-16T13:01:20.556Z,6.97
2019-05-16T13:03:48.066Z,6.80
2019-05-16T13:06:17.096Z,6.70
2019-05-16T13:08:43.317Z,6.67
2019-05-16T13:11:11.817Z,6.40
2019-05-16T13:14:02.199Z,5.78
2019-05-16T13:16:16.780Z,4.35
2019-05-16T13:18:50.657Z,3.55
2019-05-16T13:21:22.521Z,3.33
2019-05-16T13:23:47.618Z,3.00
2019-05-16T13:26:17.693Z,2.98
2019-05-16T13:28:47.326Z,3.25
2019-05-16T13:31:13.120Z,3.02
2019-05-16T13:33:41.753Z,3.15
2019-05-16T13:36:13.106Z,2.75
2019-05-16T13:38:42.628Z,2.58
2019-05-16T13:41:13.448Z,2.30
2019-05-16T13:43:41.953Z,2.70
2019-05-16T13:46:10.464Z,3.00
2019-05-16T13:48:41.994Z,3.20
2019-05-16T13:51:15.204Z,3.62
2019-05-16T13:53:40.002Z,3.40
2019-05-16T13:56:13.388Z,3.50
2019-05-16T13:58:38.553Z,4.72
2019-05-16T14:01:12.738Z,4.22
2019-05-16T14:03:41.220Z,3.75
2019-05-16T14:06:09.880Z,3.90
2019-05-16T14:08:38.801Z,4.00
2019-05-16T14:11:10.124Z,4.80
2019-05-16T14:13:37.588Z,4.12
2019-05-16T14:16:07.224Z,3.72
2019-05-16T14:18:34.250Z,3.85
2019-05-16T14:21:02.711Z,4.25
2019-05-16T14:23:33.427Z,3.67
2019-05-16T14:26:01.958Z,3.63
2019-05-16T14:28:30.575Z,3.98
2019-05-16T14:30:58.996Z,5.95
2019-05-16T14:33:27.773Z,4.08
2019-05-16T14:35:57.404Z,3.65
2019-05-16T14:38:27.862Z,2.70
2019-05-16T14:40:57.362Z,3.10
2019-05-16T14:43:27.322Z,3.35
2019-05-16T14:45:53.774Z,2.98
2019-05-16T14:48:28.602Z,2.80
2019-05-16T14:50:58.193Z,2.87
2019-05-16T14:53:28.487Z,3.30
2019-05-16T14:55:59.549Z,3.05
2019-05-16T14:58:31.789Z,3.05
2019-05-16T15:00:58.932Z,3.40
2019-05-16T15:03:28.692Z,2.80
2019-05-16T15:06:00.889Z,4.10
2019-05-16T15:08:33.644Z,3.10
2019-05-16T15:13:37.034Z,3.55
2019-05-16T15:16:04.586Z,4.30
2019-05-16T15:18:38.503Z,3.58
2019-05-16T15:21:08.327Z,4.28
2019-05-16T15:23:36.455Z,4.17
2019-05-16T15:26:20.401Z,3.55
2019-05-16T15:28:51.032Z,3.67
2019-05-16T15:31:18.371Z,3.80
2019-05-16T15:33:47.578Z,4.75
2019-05-16T15:36:16.711Z,4.60
2019-05-16T15:38:47.210Z,4.30
2019-05-16T15:41:16.603Z,4.78
2019-05-16T15:43:42.802Z,5.15
2019-05-16T15:46:11.302Z,4.58
2019-05-16T15:48:39.765Z,4.60
2019-05-16T15:51:09.255Z,4.65
2019-05-16T15:53:38.270Z,2.98
2019-05-16T15:56:10.214Z,5.20
2019-05-16T15:58:37.405Z,4.97
2019-05-16T16:01:06.697Z,2.37
2019-05-16T16:03:32.229Z,2.95
2019-05-16T16:06:12.338Z,2.95
2019-05-16T16:08:41.600Z,2.90
2019-05-16T16:11:22.682Z,2.70
2019-05-16T16:13:53.526Z,3.20
2019-05-16T16:16:21.947Z,4.22
2019-05-16T16:18:53.458Z,2.77
2019-05-16T16:23:57.185Z,5.60
2019-05-16T16:26:26.762Z,2.85
2019-05-16T16:28:58.608Z,3.17
2019-05-16T16:31:28.593Z,3.67
2019-05-16T16:36:27.548Z,2.87
2019-05-16T16:38:56.726Z,3.17
2019-05-16T16:41:30.938Z,2.40
2019-05-16T16:44:12.759Z,2.80
2019-05-16T16:46:46.756Z,3.00
2019-05-16T16:49:28.010Z,2.37
2019-05-16T16:51:57.324Z,3.20
2019-05-16T16:54:37.181Z,3.50
2019-05-16T16:57:07.851Z,2.70
2019-05-16T16:59:36.896Z,2.98
2019-05-16T17:02:04.071Z,2.05
2019-05-16T17:04:39.809Z,2.17
2019-05-16T17:07:16.764Z,2.72
2019-05-16T17:09:43.439Z,3.37
2019-05-16T17:12:16.109Z,2.92
2019-05-16T17:14:48.215Z,2.08
2019-05-16T17:17:17.741Z,2.95
2019-05-16T17:19:49.330Z,2.95
2019-05-16T17:24:51.121Z,3.33
2019-05-16T17:27:22.786Z,2.92
2019-05-16T17:30:00.508Z,3.10
2019-05-16T17:32:31.412Z,2.80
2019-05-16T17:35:00.250Z,2.77
2019-05-16T17:37:37.573Z,2.83
2019-05-16T17:40:18.794Z,3.40
2019-05-16T17:42:56.736Z,2.67
2019-05-16T17:45:27.345Z,2.77
2019-05-16T17:47:57.197Z,3.17
2019-05-16T17:50:26.326Z,2.92
2019-05-16T17:52:53.915Z,2.90
2019-05-16T17:55:22.373Z,3.22
2019-05-16T17:57:57.001Z,3.60
2019-05-16T18:00:28.836Z,3.80
2019-05-16T18:02:53.644Z,3.17
2019-05-16T18:05:22.396Z,3.70
2019-05-16T18:07:50.851Z,4.10
2019-05-16T18:10:21.383Z,4.00
2019-05-16T18:12:52.512Z,4.45
2019-05-16T18:15:22.083Z,4.80
2019-05-16T18:17:50.605Z,4.50
2019-05-16T18:20:22.145Z,4.17
2019-05-16T18:22:47.674Z,4.53
2019-05-16T18:25:16.449Z,4.47
2019-05-16T18:27:47.600Z,4.87
2019-05-16T18:30:16.649Z,4.47
2019-05-16T18:32:46.608Z,4.25
2019-05-16T18:35:16.791Z,4.78
2019-05-16T18:37:46.325Z,4.50
2019-05-16T18:40:13.158Z,3.90
2019-05-16T18:42:41.919Z,4.25
2019-05-16T18:45:10.416Z,4.15
2019-05-16T18:47:38.870Z,4.00
2019-05-16T18:50:09.450Z,3.70
2019-05-16T18:52:37.876Z,4.20
2019-05-16T18:55:08.456Z,4.05
2019-05-16T18:57:37.456Z,4.33
2019-05-16T19:00:03.728Z,4.40
2019-05-16T19:02:32.213Z,4.60
2019-05-16T19:05:01.666Z,5.15
2019-05-16T19:07:31.438Z,6.08
2019-05-16T19:10:01.897Z,5.12
2019-05-16T19:12:30.643Z,5.37
2019-05-16T19:15:00.368Z,5.50
2019-05-16T19:17:28.543Z,5.78
2019-05-16T19:19:57.152Z,6.40
2019-05-16T19:22:26.456Z,6.00
2019-05-16T19:24:54.015Z,6.65
2019-05-16T19:27:23.057Z,6.55
2019-05-16T19:29:51.873Z,8.08
2019-05-16T19:32:20.435Z,7.25
2019-05-16T19:34:49.253Z,7.58
2019-05-16T19:37:18.557Z,6.90
2019-05-16T19:39:48.094Z,6.67
2019-05-16T19:42:17.054Z,6.87
2019-05-16T19:44:47.096Z,6.87
2019-05-16T19:47:15.680Z,7.60
2019-05-16T19:49:50.507Z,7.55
2019-05-16T19:52:18.997Z,7.77
2019-05-16T19:54:47.478Z,7.35
2019-05-16T19:57:17.452Z,7.67
2019-05-16T19:59:44.737Z,8.25
2019-05-16T20:02:13.941Z,7.37
2019-05-16T20:04:42.433Z,8.48
2019-05-16T20:07:10.909Z,8.88
2019-05-16T20:09:39.404Z,9.83
2019-05-16T20:12:07.919Z,9.88
2019-05-16T20:14:36.706Z,10.35
2019-05-16T20:17:07.213Z,10.78
2019-05-16T20:19:33.631Z,10.55
2019-05-16T20:22:02.120Z,10.85
2019-05-16T20:24:30.586Z,10.00
2019-05-16T20:26:59.357Z,8.85
2019-05-16T20:29:27.856Z,9.23
2019-05-16T20:31:59.222Z,9.93
2019-05-16T20:34:26.794Z,12.03
2019-05-16T20:36:53.884Z,12.25
2019-05-16T20:39:22.403Z,9.55
2019-05-16T20:41:50.846Z,10.78
2019-05-16T20:44:20.609Z,9.23
2019-05-16T20:46:51.081Z,9.08
2019-05-16T20:49:19.557Z,9.17
2019-05-16T20:51:50.013Z,10.00
2019-05-16T20:54:17.631Z,9.58
2019-05-16T20:56:46.451Z,9.15
2019-05-16T20:59:14.502Z,9.75
2019-05-16T21:01:46.464Z,9.55
2019-05-16T21:04:13.935Z,10.10
2019-05-16T21:06:56.732Z,9.83
2019-05-16T21:09:12.941Z,10.55
2019-05-16T21:11:42.490Z,9.65
2019-05-16T21:14:16.864Z,10.38
2019-05-16T21:16:46.510Z,9.10
2019-05-16T21:19:16.347Z,10.15
2019-05-16T21:21:42.954Z,10.15
2019-05-16T21:24:11.488Z,10.55
2019-05-16T21:26:41.221Z,10.60
2019-05-16T21:29:10.725Z,12.18
2019-05-16T21:31:42.721Z,12.47
2019-05-16T21:34:11.122Z,12.10
2019-05-16T21:36:39.607Z,11.43
2019-05-16T21:39:13.290Z,12.37
2019-05-16T21:41:43.479Z,12.05
2019-05-16T21:44:11.979Z,12.18
2019-05-16T21:46:40.766Z,12.18
2019-05-16T21:49:09.258Z,13.03
2019-05-16T21:51:37.739Z,12.45
2019-05-16T21:54:07.190Z,12.85
2019-05-16T21:56:37.157Z,11.50
2019-05-16T21:59:06.796Z,12.25
2019-05-16T22:01:33.620Z,11.83
2019-05-16T22:04:02.074Z,13.75
2019-05-16T22:06:36.569Z,11.97
2019-05-16T22:09:06.747Z,12.05
2019-05-16T22:11:34.248Z,12.20
2019-05-16T22:14:02.717Z,13.05
2019-05-16T22:16:32.215Z,12.80
2019-05-16T22:19:02.718Z,12.40
2019-05-16T22:21:32.270Z,11.33
2019-05-16T22:24:02.125Z,12.55
2019-05-16T22:26:30.624Z,11.28
2019-05-16T22:28:59.089Z,11.88
2019-05-16T22:31:28.623Z,11.88
2019-05-16T22:33:58.444Z,12.30
2019-05-16T22:36:31.154Z,12.45
2019-05-16T22:39:00.628Z,14.40
2019-05-16T22:41:29.132Z,11.75
2019-05-16T22:43:57.896Z,11.70
2019-05-16T22:46:26.844Z,13.80
2019-05-16T22:48:56.914Z,12.55
2019-05-16T22:51:27.240Z,12.87
2019-05-16T22:53:58.494Z,12.40
2019-05-16T22:56:26.108Z,12.73
2019-05-16T22:58:52.580Z,13.48
2019-05-16T23:01:21.115Z,12.85
2019-05-16T23:03:49.585Z,15.15
2019-05-16T23:06:18.048Z,14.38
2019-05-16T23:08:47.137Z,13.95
2019-05-16T23:11:16.333Z,14.25
2019-05-16T23:13:43.506Z,14.05
2019-05-16T23:16:11.970Z,13.88
2019-05-16T23:18:40.471Z,13.98
2019-05-16T23:21:08.934Z,14.98
2019-05-16T23:23:37.458Z,13.35
2019-05-16T23:26:06.460Z,14.40
2019-05-16T23:28:36.577Z,15.40
2019-05-16T23:31:09.185Z,15.65
2019-05-16T23:33:47.009Z,16.57
2019-05-16T23:36:13.989Z,15.90
2019-05-16T23:38:42.501Z,16.50
2019-05-16T23:41:12.497Z,15.65
2019-05-16T23:43:40.983Z,16.48
2019-05-16T23:46:16.384Z,16.67
2019-05-16T23:48:42.550Z,16.48
2019-05-16T23:51:11.430Z,15.88
2019-05-16T23:53:39.920Z,17.17
2019-05-16T23:56:09.419Z,17.40
2019-05-16T23:58:37.944Z,16.77
